Time;durP1;ratioP1;P1;durP2;ratioP2;P2;SDS_P1;SDS_P2;PMS_P1;PMS_P2;Temp;Humidity;BMP_temperature;BMP_pressure;BME280_temperature;BME280_humidity;BME280_pressure;Samples;Min_cycle;Max_cycle;Signal;HPM_P1;HPM_P2
2022/08/18 00:05:41;;;;;;;6.35;5.55;;;17.40;99.90;;;;;;8219360;28;20125;-88
2022/08/18 00:10:10;;;;;;;8.25;6.18;;;17.40;99.90;;;;;;8119051;29;20032;-87
2022/08/18 00:20:00;;;;;;;8.48;5.88;;;17.60;99.90;;;;;;8194133;29;20034;-87
2022/08/18 00:24:25;;;;;;;8.63;6.40;;;17.40;99.90;;;;;;8162713;28;20031;-87
2022/08/18 00:28:42;;;;;;;7.28;6.47;;;17.40;99.90;;;;;;8206815;28;20034;-87
2022/08/18 00:32:56;;;;;;;;;;;;;;;;;;;;;
2022/08/18 00:42:23;;;;;;;8.48;6.72;;;17.60;99.90;;;;;;8203726;28;20495;-88
2022/08/18 00:46:42;;;;;;;9.38;6.68;;;17.50;99.90;;;;;;8277709;28;20514;-87
2022/08/18 00:52:04;;;;;;;9.20;6.93;;;17.50;99.90;;;;;;8255502;28;20106;-88
2022/08/18 00:56:23;;;;;;;8.05;7.05;;;17.40;99.90;;;;;;8275892;28;20519;-87
2022/08/18 01:00:44;;;;;;;7.78;6.80;;;17.40;99.90;;;;;;8278559;28;20377;-88
2022/08/18 01:05:36;;;;;;;;;;;;;;;;;;;;;
2022/08/18 01:09:37;;;;;;;13.73;8.63;;;17.70;99.90;;;;;;8187075;23;20428;-81
2022/08/18 01:13:41;;;;;;;10.27;7.95;;;17.70;99.90;;;;;;8282705;28;20030;-81
2022/08/18 01:22:12;;;;;;;11.50;7.50;;;17.50;99.90;;;;;;8287469;28;20552;-80
2022/08/18 01:26:15;;;;;;;8.18;7.30;;;17.40;99.90;;;;;;8287409;28;20026;-80
2022/08/18 01:30:16;;;;;;;10.07;7.65;;;17.30;99.90;;;;;;8269453;28;20180;-79
2022/08/18 01:34:20;;;;;;;8.80;7.53;;;17.20;99.90;;;;;;8281396;28;20062;-79
2022/08/18 01:38:21;;;;;;;9.45;7.82;;;17.30;99.90;;;;;;8273366;28;20113;-80
2022/08/18 01:42:22;;;;;;;11.25;8.20;;;17.00;99.90;;;;;;8273330;28;20023;-79
2022/08/18 01:46:23;;;;;;;12.57;8.68;;;16.70;99.90;;;;;;8284567;28;20057;-79
2022/08/18 01:50:23;;;;;;;11.82;9.13;;;16.60;99.90;;;;;;8275079;28;20506;-80
2022/08/18 01:54:28;;;;;;;12.20;9.32;;;16.40;99.90;;;;;;8282599;28;20034;-79
2022/08/18 01:58:29;;;;;;;13.32;9.90;;;16.30;99.90;;;;;;8269707;28;20022;-79
2022/08/18 02:02:32;;;;;;;11.23;8.95;;;16.30;99.90;;;;;;8281000;28;20050;-80
2022/08/18 02:06:33;;;;;;;12.00;9.45;;;16.10;99.90;;;;;;8275746;28;20026;-80
2022/08/18 02:10:34;;;;;;;11.77;9.50;;;15.80;99.90;;;;;;8281463;28;20040;-79
2022/08/18 02:14:36;;;;;;;11.50;8.80;;;15.60;99.90;;;;;;8273415;28;20113;-79
2022/08/18 02:18:36;;;;;;;12.10;9.95;;;15.50;99.90;;;;;;8277870;28;20019;-79
2022/08/18 02:22:37;;;;;;;12.82;10.10;;;15.30;99.90;;;;;;8274387;28;20034;-80
2022/08/18 02:26:37;;;;;;;18.63;10.75;;;15.10;99.90;;;;;;8272374;28;20032;-80
2022/08/18 02:30:39;;;;;;;14.05;10.63;;;15.00;99.90;;;;;;8279005;28;20030;-79
2022/08/18 02:34:41;;;;;;;16.45;11.48;;;15.00;99.90;;;;;;8277887;28;20038;-79
2022/08/18 02:38:42;;;;;;;20.35;12.20;;;14.90;99.90;;;;;;8280619;28;20025;-79
2022/08/18 02:42:44;;;;;;;16.42;11.77;;;14.80;99.90;;;;;;8274997;28;20587;-79
2022/08/18 02:46:45;;;;;;;18.25;12.57;;;14.80;99.90;;;;;;8276137;28;20037;-80
2022/08/18 02:50:48;;;;;;;18.38;12.48;;;14.60;99.90;;;;;;8281705;28;20022;-79
2022/08/18 02:54:48;;;;;;;16.70;12.20;;;14.80;99.90;;;;;;8292458;28;20018;-80
2022/08/18 02:58:52;;;;;;;16.02;11.38;;;14.70;99.90;;;;;;8274384;28;20476;-80
2022/08/18 03:02:53;;;;;;;18.13;10.55;;;14.60;99.90;;;;;;8273528;28;20025;-79
2022/08/18 03:06:55;;;;;;;13.10;9.93;;;14.70;99.90;;;;;;8272142;28;20430;-79
2022/08/18 03:10:55;;;;;;;15.52;11.18;;;14.60;99.90;;;;;;8280969;28;20022;-80
2022/08/18 03:14:56;;;;;;;16.88;11.82;;;14.40;99.90;;;;;;8280978;28;20338;-79
2022/08/18 03:18:56;;;;;;;19.67;12.05;;;14.40;99.90;;;;;;8268949;28;20114;-80
2022/08/18 03:22:57;;;;;;;22.27;12.45;;;14.30;99.90;;;;;;8273126;28;20026;-79
2022/08/18 03:26:59;;;;;;;22.00;10.57;;;14.20;99.90;;;;;;8278185;28;20030;-80
2022/08/18 03:31:00;;;;;;;26.98;11.50;;;14.30;99.90;;;;;;8272324;28;20098;-80
2022/08/18 03:35:00;;;;;;;113.25;15.05;;;14.30;99.90;;;;;;8274340;28;20396;-80
2022/08/18 03:39:07;;;;;;;208.48;13.45;;;14.10;99.90;;;;;;8299089;28;20018;-79
2022/08/18 03:43:07;;;;;;;37.20;11.25;;;14.30;99.90;;;;;;8278214;28;20431;-80
2022/08/18 03:47:09;;;;;;;17.92;12.32;;;14.30;99.90;;;;;;8284330;28;20026;-80
2022/08/18 03:51:16;;;;;;;18.27;11.40;;;14.20;99.90;;;;;;8275937;28;20105;-80
2022/08/18 03:55:18;;;;;;;16.52;10.93;;;14.00;99.90;;;;;;8274462;28;20026;-80
2022/08/18 03:59:23;;;;;;;17.02;12.38;;;14.10;99.90;;;;;;8272388;28;20054;-84
2022/08/18 04:03:27;;;;;;;20.50;11.18;;;13.90;99.90;;;;;;8269391;28;20134;-84
2022/08/18 04:07:27;;;;;;;22.00;12.57;;;13.80;99.90;;;;;;8269967;28;20030;-85
2022/08/18 04:11:29;;;;;;;26.30;12.93;;;13.60;99.90;;;;;;8275383;28;20407;-84
2022/08/18 04:15:31;;;;;;;39.17;13.57;;;13.50;99.90;;;;;;8276343;28;20030;-84
2022/08/18 04:19:33;;;;;;;17.80;10.63;;;13.40;99.90;;;;;;8261166;28;20403;-84
2022/08/18 04:23:35;;;;;;;20.42;13.05;;;13.70;99.90;;;;;;8272098;28;20026;-84
2022/08/18 04:27:38;;;;;;;23.00;13.90;;;13.70;99.90;;;;;;8272595;28;20039;-85
2022/08/18 04:31:39;;;;;;;17.58;12.27;;;13.80;99.90;;;;;;8272567;28;20034;-85
2022/08/18 04:35:39;;;;;;;18.80;10.93;;;13.90;99.90;;;;;;8274593;28;20057;-79
2022/08/18 04:39:40;;;;;;;18.83;12.52;;;13.80;99.90;;;;;;8275453;28;20031;-78
2022/08/18 04:43:41;;;;;;;14.02;10.63;;;14.10;99.90;;;;;;8277670;28;20053;-78
2022/08/18 04:47:41;;;;;;;16.63;10.70;;;14.50;99.90;;;;;;8275963;28;20065;-79
2022/08/18 04:53:43;;;;;;;17.20;11.77;;;14.60;99.90;;;;;;8266069;28;20038;-80
2022/08/18 04:56:06;;;;;;;19.98;12.68;;;14.40;99.90;;;;;;8268097;28;20038;-78
2022/08/18 05:00:09;;;;;;;23.75;12.75;;;14.40;99.90;;;;;;8271733;28;20419;-80
2022/08/18 05:04:12;;;;;;;17.70;12.23;;;14.70;99.90;;;;;;8278087;28;20483;-79
2022/08/18 05:08:12;;;;;;;16.88;11.98;;;15.00;99.90;;;;;;8280804;28;20025;-80
2022/08/18 05:12:14;;;;;;;17.88;12.52;;;15.30;99.90;;;;;;8280259;28;20038;-77
2022/08/18 05:16:15;;;;;;;14.93;11.35;;;15.60;99.90;;;;;;8277440;28;20030;-79
2022/08/18 05:20:16;;;;;;;19.90;11.30;;;15.80;99.90;;;;;;8268879;28;20022;-79
2022/08/18 05:24:17;;;;;;;15.70;10.57;;;16.10;99.90;;;;;;8266155;28;20236;-79
2022/08/18 05:28:18;;;;;;;17.73;13.07;;;16.00;99.90;;;;;;8270544;28;20109;-79
2022/08/18 05:32:18;;;;;;;18.98;12.20;;;16.00;99.90;;;;;;8272289;28;20030;-80
2022/08/18 05:36:45;;;;;;;17.85;13.15;;;15.90;99.90;;;;;;8265389;28;20062;-79
2022/08/18 05:41:03;;;;;;;16.73;11.75;;;16.00;99.90;;;;;;8261742;28;20030;-79
2022/08/18 05:45:10;;;;;;;18.45;11.93;;;16.20;99.90;;;;;;8268974;28;20051;-80
2022/08/18 05:49:13;;;;;;;13.52;10.02;;;16.00;99.90;;;;;;8272066;28;20526;-80
2022/08/18 05:53:17;;;;;;;13.10;9.73;;;16.30;99.90;;;;;;8272760;28;20125;-79
2022/08/18 05:57:21;;;;;;;14.93;11.10;;;16.60;99.90;;;;;;8269002;28;20620;-79
2022/08/18 06:01:25;;;;;;;14.07;10.90;;;16.50;99.90;;;;;;8268111;28;20068;-80
2022/08/18 06:05:34;;;;;;;14.82;10.82;;;16.70;99.90;;;;;;8268259;28;20038;-79
2022/08/18 06:09:49;;;;;;;13.55;10.73;;;16.70;99.90;;;;;;8269304;28;20035;-79
2022/08/18 06:13:50;;;;;;;16.55;12.05;;;16.70;99.90;;;;;;8271331;28;20022;-79
2022/08/18 06:18:26;;;;;;;14.25;10.93;;;16.60;99.90;;;;;;8265180;28;20021;-79
2022/08/18 06:23:21;;;;;;;14.68;11.23;;;16.90;99.90;;;;;;8261974;28;20026;-79
2022/08/18 06:27:39;;;;;;;16.08;11.77;;;16.90;99.90;;;;;;8193146;28;20047;-80
2022/08/18 06:31:59;;;;;;;16.15;11.63;;;17.10;99.90;;;;;;8256177;28;20068;-80
2022/08/18 06:36:26;;;;;;;12.88;10.38;;;17.20;99.90;;;;;;8266327;28;20022;-80
2022/08/18 06:40:27;;;;;;;13.93;10.70;;;17.00;99.90;;;;;;8268410;28;20088;-80
2022/08/18 06:44:43;;;;;;;12.02;9.30;;;17.00;99.90;;;;;;8262367;28;20488;-79
2022/08/18 06:48:55;;;;;;;13.27;9.32;;;17.40;99.90;;;;;;8280157;28;20027;-80
2022/08/18 06:52:58;;;;;;;10.75;9.45;;;17.40;99.90;;;;;;8259841;28;20061;-79
2022/08/18 06:56:59;;;;;;;14.80;10.88;;;17.40;99.90;;;;;;8259905;28;20034;-78
2022/08/18 07:01:04;;;;;;;15.38;9.73;;;17.20;99.90;;;;;;8267505;28;20077;-79
2022/08/18 07:05:13;;;;;;;12.85;10.23;;;17.40;99.90;;;;;;8259728;28;20112;-79
2022/08/18 07:09:22;;;;;;;13.60;9.82;;;17.40;99.90;;;;;;8277876;28;20487;-80
2022/08/18 07:13:26;;;;;;;12.38;10.05;;;17.40;99.90;;;;;;8300082;23;20038;-83
2022/08/18 07:17:38;;;;;;;15.43;11.60;;;17.70;99.90;;;;;;8301622;28;20084;-84
2022/08/18 07:21:39;;;;;;;15.85;11.77;;;17.50;99.90;;;;;;8292975;28;20045;-83
2022/08/18 07:25:45;;;;;;;14.10;10.20;;;17.40;99.90;;;;;;8297862;28;20248;-83
2022/08/18 07:30:18;;;;;;;15.70;12.70;;;17.60;99.90;;;;;;8274218;28;20037;-83
2022/08/18 07:34:36;;;;;;;15.32;10.57;;;17.80;99.90;;;;;;8280536;28;20077;-82
2022/08/18 07:38:50;;;;;;;14.88;11.13;;;17.80;99.90;;;;;;8298283;28;20109;-83
2022/08/18 07:43:12;;;;;;;15.75;10.60;;;18.00;99.90;;;;;;8282432;28;20033;-83
2022/08/18 07:47:25;;;;;;;15.02;10.13;;;18.40;99.90;;;;;;8272920;28;20034;-83
2022/08/18 07:51:43;;;;;;;11.80;10.02;;;18.50;99.90;;;;;;8279884;28;20105;-83
2022/08/18 07:55:49;;;;;;;12.63;10.27;;;18.80;99.90;;;;;;8307114;28;20023;-83
2022/08/18 08:00:20;;;;;;;11.82;9.95;;;20.00;99.90;;;;;;8303487;28;20017;-84
2022/08/18 08:04:47;;;;;;;13.10;10.13;;;20.60;99.90;;;;;;8286145;28;20032;-83
2022/08/18 08:08:48;;;;;;;9.80;8.73;;;21.40;99.90;;;;;;8295954;28;20094;-83
2022/08/18 08:13:14;;;;;;;10.38;9.27;;;22.20;99.90;;;;;;8288234;28;20463;-83
2022/08/18 08:17:44;;;;;;;8.70;7.80;;;22.50;99.90;;;;;;8281642;28;20072;-82
2022/08/18 08:21:58;;;;;;;11.55;8.25;;;22.40;99.90;;;;;;8289485;28;20113;-83
2022/08/18 08:26:17;;;;;;;9.95;8.63;;;22.40;99.90;;;;;;8316066;28;20025;-83
2022/08/18 08:30:20;;;;;;;9.35;8.43;;;22.30;99.90;;;;;;8317840;28;20022;-83
2022/08/18 08:34:26;;;;;;;10.63;7.97;;;22.10;99.90;;;;;;8312312;28;20087;-84
2022/08/18 08:38:43;;;;;;;10.05;8.57;;;22.30;99.90;;;;;;8323488;28;20048;-84
2022/08/18 08:42:54;;;;;;;12.35;8.32;;;22.20;99.90;;;;;;8287304;28;20098;-84
2022/08/18 08:47:06;;;;;;;9.50;8.48;;;22.20;99.90;;;;;;8319692;28;20080;-83
2022/08/18 08:51:29;;;;;;;10.60;8.88;;;22.30;99.90;;;;;;8322456;28;20025;-84
2022/08/18 08:55:34;;;;;;;10.20;8.93;;;22.30;99.90;;;;;;8307531;28;20026;-84
2022/08/18 08:59:36;;;;;;;10.30;9.20;;;22.10;99.90;;;;;;8298890;28;20064;-83
2022/08/18 09:03:52;;;;;;;11.95;9.50;;;22.00;99.90;;;;;;8320846;28;20135;-84
2022/08/18 09:08:09;;;;;;;11.95;10.10;;;22.40;99.90;;;;;;8337053;28;20032;-83
2022/08/18 09:12:27;;;;;;;11.20;8.80;;;22.40;99.90;;;;;;8330544;28;20040;-83
2022/08/18 09:16:46;;;;;;;10.18;8.25;;;22.70;99.90;;;;;;8334410;28;20037;-84
2022/08/18 09:21:02;;;;;;;9.27;8.25;;;23.40;99.90;;;;;;8319248;28;20100;-82
2022/08/18 09:25:10;;;;;;;10.50;8.43;;;24.30;99.90;;;;;;8300709;28;20018;-83
2022/08/18 09:29:44;;;;;;;11.00;8.45;;;24.10;99.90;;;;;;8325465;28;20583;-83
2022/08/18 09:34:09;;;;;;;10.77;9.20;;;24.20;99.90;;;;;;8318874;28;20027;-83
2022/08/18 09:42:50;;;;;;;9.25;8.02;;;24.60;99.90;;;;;;8320396;28;20044;-80
2022/08/18 09:46:53;;;;;;;10.27;9.10;;;24.10;99.90;;;;;;8318311;28;20642;-83
2022/08/18 09:51:22;;;;;;;9.55;8.15;;;23.80;99.90;;;;;;8301261;28;20089;-81
2022/08/18 09:55:22;;;;;;;10.82;7.63;;;24.70;99.90;;;;;;8300205;28;20026;-83
2022/08/18 09:59:32;;;;;;;9.00;6.80;;;24.70;99.90;;;;;;8293916;28;20032;-83
2022/08/18 10:03:33;;;;;;;9.27;7.33;;;24.80;99.90;;;;;;8304220;28;20635;-82
2022/08/18 10:07:36;;;;;;;6.22;5.50;;;25.30;99.90;;;;;;8289552;28;20029;-83
2022/08/18 10:11:46;;;;;;;6.93;6.22;;;25.30;99.90;;;;;;8302245;28;20121;-83
2022/08/18 10:16:09;;;;;;;7.43;6.72;;;25.30;99.90;;;;;;8309741;28;20253;-83
2022/08/18 10:20:32;;;;;;;9.25;6.13;;;24.90;99.90;;;;;;8312534;28;20086;-82
2022/08/18 10:24:54;;;;;;;7.15;5.43;;;25.30;99.90;;;;;;8305044;28;20064;-83
2022/08/18 10:29:04;;;;;;;6.10;5.40;;;25.40;99.90;;;;;;8321125;28;20026;-81
2022/08/18 10:33:10;;;;;;;6.82;5.90;;;25.10;99.90;;;;;;8292984;28;20025;-82
2022/08/18 10:37:25;;;;;;;7.18;5.25;;;25.60;99.90;;;;;;8304127;28;20117;-83
2022/08/18 10:41:30;;;;;;;5.15;4.45;;;26.10;99.90;;;;;;8290828;28;20049;-83
2022/08/18 10:45:35;;;;;;;4.82;3.90;;;26.50;99.90;;;;;;8279667;28;20053;-83
2022/08/18 10:49:37;;;;;;;4.85;4.30;;;26.60;99.90;;;;;;8296915;28;20026;-82
2022/08/18 10:53:53;;;;;;;5.72;4.43;;;26.40;99.90;;;;;;8310496;28;20109;-83
2022/08/18 10:58:11;;;;;;;4.78;4.30;;;26.50;99.90;;;;;;8295356;28;20030;-82
2022/08/18 11:02:30;;;;;;;4.28;3.88;;;26.50;99.90;;;;;;8301580;28;20066;-83
2022/08/18 11:06:40;;;;;;;4.47;3.78;;;28.00;99.90;;;;;;8278413;28;20032;-83
2022/08/18 11:10:49;;;;;;;4.40;4.00;;;28.10;99.90;;;;;;8298133;28;20472;-83
2022/08/18 11:15:06;;;;;;;4.80;4.20;;;28.20;99.90;;;;;;8286708;28;20510;-83
2022/08/18 11:19:13;;;;;;;5.25;4.45;;;27.50;99.90;;;;;;8295794;28;20026;-83
2022/08/18 11:23:16;;;;;;;6.13;5.13;;;27.00;99.90;;;;;;8302967;28;20022;-82
2022/08/18 11:27:25;;;;;;;4.97;4.47;;;26.90;99.90;;;;;;8303835;28;20027;-83
2022/08/18 11:31:26;;;;;;;6.57;5.40;;;26.90;99.90;;;;;;8313725;28;20029;-83
2022/08/18 11:35:34;;;;;;;6.55;5.03;;;27.20;99.90;;;;;;8296468;28;20145;-83
2022/08/18 11:39:46;;;;;;;6.15;5.55;;;27.50;99.90;;;;;;8321384;28;20021;-83
2022/08/18 11:43:47;;;;;;;6.07;5.47;;;28.20;99.90;;;;;;8288665;28;20541;-83
2022/08/18 11:48:16;;;;;;;6.18;5.47;;;28.60;99.90;;;;;;8305653;28;20083;-83
2022/08/18 11:52:23;;;;;;;7.40;5.95;;;29.00;99.90;;;;;;8299285;28;20427;-83
2022/08/18 11:56:29;;;;;;;8.52;6.40;;;28.60;99.90;;;;;;8313926;28;20041;-83
2022/08/18 12:00:42;;;;;;;7.40;5.90;;;27.30;99.90;;;;;;8300716;28;20084;-83
2022/08/18 12:04:43;;;;;;;8.15;6.18;;;27.30;99.90;;;;;;8285066;28;20057;-82
2022/08/18 12:09:00;;;;;;;7.00;6.07;;;27.70;99.90;;;;;;8306486;28;20034;-83
2022/08/18 12:13:01;;;;;;;10.38;5.88;;;28.40;99.90;;;;;;8291321;28;20025;-83
2022/08/18 12:17:06;;;;;;;9.02;7.00;;;27.10;99.90;;;;;;8321907;28;20021;-83
2022/08/18 12:21:09;;;;;;;9.95;7.80;;;25.10;99.90;;;;;;8310518;28;20631;-83
2022/08/18 12:25:13;;;;;;;12.93;8.63;;;24.40;99.90;;;;;;8311177;28;20492;-83
2022/08/18 12:29:17;;;;;;;9.98;8.65;;;24.20;99.90;;;;;;8326506;28;20057;-81
2022/08/18 12:33:17;;;;;;;10.93;8.40;;;24.50;99.90;;;;;;8290545;28;20042;-83
2022/08/18 12:37:22;;;;;;;9.15;7.30;;;25.10;99.90;;;;;;8311759;28;20065;-83
2022/08/18 12:41:23;;;;;;;8.98;7.10;;;25.50;99.90;;;;;;8302593;28;20033;-83
2022/08/18 12:45:25;;;;;;;8.65;7.55;;;25.60;99.90;;;;;;8294792;28;20059;-84
2022/08/18 12:49:25;;;;;;;8.70;7.55;;;25.70;99.90;;;;;;8287228;28;20017;-81
2022/08/18 12:53:27;;;;;;;7.55;6.75;;;26.20;99.90;;;;;;8295634;28;20515;-83
2022/08/18 12:57:27;;;;;;;7.35;6.53;;;26.30;99.90;;;;;;8309293;28;20038;-83
2022/08/18 13:01:28;;;;;;;8.63;6.85;;;26.00;99.90;;;;;;8303966;28;20483;-83
2022/08/18 13:05:29;;;;;;;9.02;6.63;;;25.60;99.90;;;;;;8317139;28;20041;-83
2022/08/18 13:09:32;;;;;;;7.60;6.72;;;25.30;99.90;;;;;;8311259;28;20026;-83
2022/08/18 13:13:33;;;;;;;8.48;5.97;;;25.20;99.90;;;;;;8317029;23;20054;-81
2022/08/18 13:17:38;;;;;;;7.57;6.80;;;25.20;99.90;;;;;;8278172;28;20026;-79
2022/08/18 13:21:39;;;;;;;9.30;6.43;;;25.10;99.90;;;;;;8287252;28;20019;-80
2022/08/18 13:25:40;;;;;;;7.20;6.47;;;25.40;99.90;;;;;;8291515;28;20041;-81
2022/08/18 13:29:41;;;;;;;9.85;7.20;;;25.90;99.90;;;;;;8293712;28;20033;-80
2022/08/18 13:33:41;;;;;;;7.05;6.28;;;26.10;99.90;;;;;;8297886;28;20034;-80
2022/08/18 13:37:42;;;;;;;7.53;6.43;;;25.70;99.90;;;;;;8297069;28;20026;-80
2022/08/18 13:41:45;;;;;;;7.00;6.30;;;25.70;99.90;;;;;;8298973;28;20017;-80
2022/08/18 13:45:48;;;;;;;6.68;5.95;;;25.60;99.90;;;;;;8281490;28;20578;-79
2022/08/18 13:49:50;;;;;;;6.43;5.82;;;25.30;99.90;;;;;;8315741;28;20057;-82
2022/08/18 13:53:51;;;;;;;6.68;6.07;;;24.90;99.90;;;;;;8280732;28;20565;-80
2022/08/18 13:57:51;;;;;;;6.13;5.53;;;24.20;99.90;;;;;;8316922;28;20018;-81
2022/08/18 14:01:52;;;;;;;6.10;5.50;;;23.70;99.90;;;;;;8264642;28;20040;-81
2022/08/18 14:05:56;;;;;;;7.68;5.97;;;23.50;99.90;;;;;;8297104;28;20068;-79
2022/08/18 14:09:57;;;;;;;6.75;5.70;;;23.30;99.90;;;;;;8290563;28;20030;-78
2022/08/18 14:13:58;;;;;;;19.52;8.30;;;23.60;99.90;;;;;;8260061;28;20042;-80
2022/08/18 14:17:59;;;;;;;7.25;6.00;;;23.80;99.90;;;;;;8261572;28;20381;-80
2022/08/18 14:30:38;;;;;;;14.85;8.05;;;23.70;99.90;;;;;;8267158;28;20096;-78
2022/08/18 14:34:39;;;;;;;16.55;8.25;;;23.80;99.90;;;;;;8264806;28;20440;-80
2022/08/18 14:38:41;;;;;;;7.65;5.70;;;23.90;99.90;;;;;;8275043;28;20022;-79
2022/08/18 14:42:41;;;;;;;9.07;6.13;;;23.80;99.90;;;;;;8260884;28;20045;-79
2022/08/18 14:46:46;;;;;;;6.88;6.18;;;23.90;99.90;;;;;;8262172;28;20554;-79
2022/08/18 14:50:51;;;;;;;8.02;6.28;;;23.90;99.90;;;;;;8265769;28;20033;-80
2022/08/18 14:54:53;;;;;;;6.95;6.20;;;24.00;99.90;;;;;;8247475;28;20040;-81
2022/08/18 14:58:53;;;;;;;6.90;6.20;;;23.90;99.90;;;;;;8261247;28;20026;-80
2022/08/18 15:02:56;;;;;;;7.25;6.55;;;23.60;99.90;;;;;;8253575;28;20065;-80
2022/08/18 15:06:56;;;;;;;8.77;6.47;;;23.60;99.90;;;;;;8260579;28;20037;-80
2022/08/18 15:10:57;;;;;;;7.93;6.80;;;23.40;99.90;;;;;;8251100;28;20026;-81
2022/08/18 15:14:58;;;;;;;7.85;7.05;;;23.50;99.90;;;;;;8262435;28;20436;-80
2022/08/18 15:19:00;;;;;;;8.45;6.32;;;23.40;99.90;;;;;;8246362;28;20022;-81
2022/08/18 15:27:22;;;;;;;11.02;7.38;;;22.80;99.90;;;;;;8257938;28;20519;-80
2022/08/18 15:31:23;;;;;;;7.80;7.00;;;22.60;99.90;;;;;;8258075;28;20034;-81
2022/08/18 15:35:24;;;;;;;7.20;6.15;;;22.40;99.90;;;;;;8285642;28;20030;-81
2022/08/18 15:39:25;;;;;;;7.25;6.25;;;22.80;99.90;;;;;;8267694;28;20034;-80
2022/08/18 15:43:27;;;;;;;7.72;6.88;;;23.20;99.90;;;;;;8281644;28;20037;-80
2022/08/18 15:47:28;;;;;;;8.43;6.53;;;22.70;99.90;;;;;;8267637;28;20109;-80
2022/08/18 15:51:29;;;;;;;7.18;6.47;;;22.70;99.90;;;;;;8267017;28;20034;-80
2022/08/18 15:55:32;;;;;;;8.65;7.53;;;22.40;99.90;;;;;;8265884;28;20535;-79
2022/08/18 15:59:33;;;;;;;11.95;7.85;;;22.20;99.90;;;;;;8280410;28;20033;-80
2022/08/18 16:03:34;;;;;;;10.52;8.10;;;21.70;99.90;;;;;;8279881;28;20524;-79
2022/08/18 16:07:36;;;;;;;9.40;8.20;;;21.90;99.90;;;;;;8258718;28;20031;-79
2022/08/18 16:11:36;;;;;;;11.23;8.48;;;21.90;99.90;;;;;;8278001;28;20057;-78
2022/08/18 16:15:40;;;;;;;13.80;9.98;;;21.70;99.90;;;;;;8274002;28;20088;-80
2022/08/18 16:19:40;;;;;;;14.23;11.02;;;21.50;99.90;;;;;;8260794;28;20030;-79
2022/08/18 16:23:43;;;;;;;11.32;10.13;;;21.40;99.90;;;;;;8253756;28;20165;-79
2022/08/18 16:27:46;;;;;;;11.63;10.32;;;21.40;99.90;;;;;;8261965;28;20073;-78
2022/08/18 16:31:47;;;;;;;12.30;11.00;;;21.30;99.90;;;;;;8269977;28;20058;-79
2022/08/18 16:35:50;;;;;;;16.00;11.45;;;21.00;99.90;;;;;;8250307;28;20464;-78
2022/08/18 16:39:50;;;;;;;13.70;10.80;;;20.80;99.90;;;;;;8250489;28;20018;-79
2022/08/18 16:43:51;;;;;;;11.68;10.50;;;20.70;99.90;;;;;;8266173;28;20038;-79
2022/08/18 16:47:52;;;;;;;12.23;10.25;;;20.50;99.90;;;;;;8250917;28;20106;-79
2022/08/18 16:51:53;;;;;;;11.98;10.75;;;20.40;99.90;;;;;;8251441;28;20046;-78
2022/08/18 16:55:54;;;;;;;13.02;9.95;;;20.10;99.90;;;;;;8262365;28;20026;-78
2022/08/18 17:04:19;;;;;;;12.10;10.82;;;20.10;99.90;;;;;;8262256;28;20050;-80
2022/08/18 17:08:19;;;;;;;13.23;11.32;;;20.20;99.90;;;;;;8256969;28;20086;-79
2022/08/18 17:12:21;;;;;;;14.57;12.75;;;19.90;99.90;;;;;;8257399;28;20578;-78
2022/08/18 17:16:25;;;;;;;14.98;12.85;;;19.70;99.90;;;;;;8270751;28;20034;-79
2022/08/18 17:20:26;;;;;;;16.30;13.68;;;19.50;99.90;;;;;;8263052;28;20025;-78
2022/08/18 17:24:27;;;;;;;14.85;13.18;;;19.40;99.90;;;;;;8257053;28;20043;-79
2022/08/18 17:28:42;;;;;;;14.95;13.10;;;19.50;99.90;;;;;;8254245;28;20030;-79
2022/08/18 17:33:04;;;;;;;14.07;12.40;;;19.50;99.90;;;;;;8266116;28;20038;-80
2022/08/18 17:37:13;;;;;;;15.30;12.63;;;19.40;99.90;;;;;;8272516;28;20095;-80
2022/08/18 17:41:17;;;;;;;16.10;13.00;;;19.30;99.90;;;;;;8261460;28;20164;-80
2022/08/18 17:45:20;;;;;;;14.07;12.43;;;19.30;99.90;;;;;;8264224;28;20022;-79
2022/08/18 17:51:32;;;;;;;18.05;15.90;;;19.30;99.90;;;;;;8267775;28;20038;-80
2022/08/18 17:53:51;;;;;;;22.65;17.80;;;19.30;99.90;;;;;;8252935;28;20412;-80
2022/08/18 17:58:00;;;;;;;23.33;17.88;;;19.30;99.90;;;;;;8279634;28;20176;-80
2022/08/18 18:02:17;;;;;;;21.88;16.45;;;19.30;99.90;;;;;;8271474;28;20031;-78
2022/08/18 18:06:30;;;;;;;19.27;15.00;;;19.20;99.90;;;;;;8254809;28;20705;-80
2022/08/18 18:10:47;;;;;;;20.00;16.40;;;19.10;99.90;;;;;;8243508;28;20041;-80
2022/08/18 18:14:48;;;;;;;18.55;15.07;;;18.90;99.90;;;;;;8257812;28;20114;-81
2022/08/18 18:19:01;;;;;;;19.60;15.13;;;18.80;99.90;;;;;;8241807;28;21155;-78
2022/08/18 18:23:20;;;;;;;18.30;14.55;;;18.70;99.90;;;;;;8264166;28;20550;-78
2022/08/18 18:27:47;;;;;;;18.33;13.25;;;18.60;99.90;;;;;;8258960;28;21056;-81
2022/08/18 18:31:50;;;;;;;18.27;14.88;;;18.60;99.90;;;;;;8263277;28;20042;-78
2022/08/18 18:35:56;;;;;;;18.90;14.80;;;18.50;99.90;;;;;;8272957;28;20080;-79
2022/08/18 18:40:00;;;;;;;19.98;15.35;;;18.50;99.90;;;;;;8261425;28;20105;-80
2022/08/18 18:44:08;;;;;;;16.73;13.75;;;18.20;99.90;;;;;;8263969;28;20031;-78
2022/08/18 18:48:15;;;;;;;19.00;14.40;;;18.40;99.90;;;;;;8267784;28;20049;-79
2022/08/18 18:52:58;;;;;;;15.90;12.20;;;18.40;99.90;;;;;;8279075;28;20030;-82
2022/08/18 18:56:59;;;;;;;11.68;10.07;;;18.40;99.90;;;;;;8258207;28;20138;-81
2022/08/18 19:01:03;;;;;;;10.13;8.90;;;18.40;99.90;;;;;;8268245;28;20034;-80
2022/08/18 19:05:26;;;;;;;9.77;8.20;;;18.40;99.90;;;;;;8262463;28;20029;-80
2022/08/18 19:09:43;;;;;;;8.57;7.25;;;18.30;99.90;;;;;;8274355;28;20035;-80
2022/08/18 19:13:52;;;;;;;7.80;6.88;;;18.20;99.90;;;;;;8283913;28;20117;-80
2022/08/18 19:18:23;;;;;;;8.35;7.45;;;18.20;99.90;;;;;;8274139;28;20450;-80
2022/08/18 19:22:57;;;;;;;10.68;8.35;;;18.20;99.90;;;;;;8278605;28;20029;-79
2022/08/18 19:27:02;;;;;;;10.80;8.73;;;18.00;99.90;;;;;;8263119;28;20534;-81
2022/08/18 19:31:16;;;;;;;10.98;8.90;;;18.20;99.90;;;;;;8252381;28;20053;-80
2022/08/18 19:35:26;;;;;;;11.13;9.40;;;18.20;99.90;;;;;;8272172;28;20018;-81
2022/08/18 19:39:38;;;;;;;11.73;10.23;;;18.00;99.90;;;;;;8257783;28;20041;-81
2022/08/18 19:44:02;;;;;;;14.05;11.13;;;18.10;99.90;;;;;;8249660;28;20118;-81
2022/08/18 19:48:19;;;;;;;15.32;11.48;;;18.00;99.90;;;;;;8276853;28;20790;-81
2022/08/18 19:52:48;;;;;;;12.50;10.52;;;18.00;99.90;;;;;;8264007;28;20044;-82
2022/08/18 19:57:14;;;;;;;13.32;11.65;;;18.10;99.90;;;;;;8291923;28;20106;-83
2022/08/18 20:01:44;;;;;;;14.90;11.93;;;18.20;99.90;;;;;;8263370;28;20041;-84
2022/08/18 20:06:09;;;;;;;17.83;12.02;;;18.10;99.90;;;;;;8264184;28;20030;-85
2022/08/18 20:10:29;;;;;;;16.80;12.43;;;18.10;99.90;;;;;;8254617;28;20385;-86
2022/08/18 20:14:34;;;;;;;15.27;11.98;;;18.00;99.90;;;;;;8267187;23;20381;-87
2022/08/18 20:18:47;;;;;;;16.17;12.30;;;18.10;99.90;;;;;;8262219;28;20026;-85
2022/08/18 20:22:51;;;;;;;13.80;11.45;;;18.20;99.90;;;;;;8273657;28;20033;-84
2022/08/18 20:26:52;;;;;;;13.90;11.25;;;18.00;99.90;;;;;;8275804;28;20061;-84
2022/08/18 20:31:11;;;;;;;15.00;10.82;;;17.90;99.90;;;;;;8270193;28;20026;-86
2022/08/18 20:35:30;;;;;;;14.75;11.60;;;17.90;99.90;;;;;;8264895;28;20117;-85
2022/08/18 20:39:44;;;;;;;15.57;11.85;;;17.90;99.90;;;;;;8271187;28;20030;-85
2022/08/18 20:43:49;;;;;;;14.52;11.63;;;17.80;99.90;;;;;;8274581;28;20114;-85
2022/08/18 20:47:59;;;;;;;12.68;10.55;;;17.90;99.90;;;;;;8268845;28;20038;-85
2022/08/18 20:52:18;;;;;;;;;;;17.90;99.90;;;;;;8267121;28;20026;-84
2022/08/18 20:56:43;;;;;;;13.48;10.00;;;18.00;99.90;;;;;;8280596;28;20448;-83
2022/08/18 21:00:50;;;;;;;15.90;9.90;;;17.90;99.90;;;;;;8270977;28;20381;-83
2022/08/18 21:04:53;;;;;;;11.98;8.63;;;17.90;99.90;;;;;;8266563;28;20054;-83
2022/08/18 21:08:53;;;;;;;11.30;8.55;;;18.00;99.90;;;;;;8277142;28;20022;-82
2022/08/18 21:13:00;;;;;;;10.60;6.80;;;17.90;99.90;;;;;;8284436;28;20043;-85
2022/08/18 21:17:12;;;;;;;7.35;5.18;;;17.90;99.90;;;;;;8306402;28;20037;-81
2022/08/18 21:21:23;;;;;;;6.57;3.63;;;17.80;99.90;;;;;;8286808;28;20033;-83
2022/08/18 21:25:23;;;;;;;3.15;2.85;;;17.80;99.90;;;;;;8297304;28;20028;-83
2022/08/18 21:29:25;;;;;;;3.03;2.22;;;17.70;99.90;;;;;;8310213;28;20035;-84
2022/08/18 21:33:29;;;;;;;6.63;1.73;;;17.60;99.90;;;;;;8289071;28;20022;-83
2022/08/18 21:37:31;;;;;;;0.10;0.10;;;17.60;99.90;;;;;;8314635;28;20048;-81
2022/08/18 21:41:32;;;;;;;0.10;0.10;;;17.70;99.90;;;;;;8294842;28;20018;-83
2022/08/18 21:45:49;;;;;;;0.10;0.10;;;17.70;99.90;;;;;;8306989;28;20025;-86
2022/08/18 21:50:27;;;;;;;0.00;0.00;;;17.70;99.90;;;;;;8322900;28;20036;-86
2022/08/18 22:03:58;;;;;;;0.00;0.00;;;17.60;99.90;;;;;;8317265;28;20040;-86
2022/08/18 22:07:59;;;;;;;0.10;0.10;;;17.50;99.90;;;;;;8293056;28;20021;-86